sensor_id;sensor_type;location;lat;lon;timestamp;P1;durP1;ratioP1;P2;durP2;ratioP2
37715;SDS011;23562;50.540;12.504;2022-12-07T00:00:27;25.15;;;12.35;;
37715;SDS011;23562;50.540;12.504;2022-12-07T00:02:53;24.30;;;13.30;;
37715;SDS011;23562;50.540;12.504;2022-12-07T00:05:18;25.83;;;13.77;;
37715;SDS011;23562;50.540;12.504;2022-12-07T00:07:43;23.45;;;13.23;;
37715;SDS011;23562;50.540;12.504;2022-12-07T00:10:08;22.38;;;12.70;;
37715;SDS011;23562;50.540;12.504;2022-12-07T00:12:34;23.98;;;13.80;;
37715;SDS011;23562;50.540;12.504;2022-12-07T00:14:59;22.42;;;12.73;;
37715;SDS011;23562;50.540;12.504;2022-12-07T00:17:24;24.13;;;13.30;;
37715;SDS011;23562;50.540;12.504;2022-12-07T00:19:49;22.13;;;12.60;;
37715;SDS011;23562;50.540;12.504;2022-12-07T00:22:15;22.83;;;12.55;;
37715;SDS011;23562;50.540;12.504;2022-12-07T00:24:40;19.95;;;12.32;;
37715;SDS011;23562;50.540;12.504;2022-12-07T00:27:05;19.27;;;11.48;;
37715;SDS011;23562;50.540;12.504;2022-12-07T00:29:30;24.52;;;12.85;;
37715;SDS011;23562;50.540;12.504;2022-12-07T00:31:56;20.30;;;11.95;;
37715;SDS011;23562;50.540;12.504;2022-12-07T00:34:21;20.60;;;11.98;;
37715;SDS011;23562;50.540;12.504;2022-12-07T00:36:47;20.23;;;12.88;;
37715;SDS011;23562;50.540;12.504;2022-12-07T00:39:13;21.75;;;11.70;;
37715;SDS011;23562;50.540;12.504;2022-12-07T00:41:38;20.67;;;11.73;;
37715;SDS011;23562;50.540;12.504;2022-12-07T00:44:04;20.65;;;11.93;;
37715;SDS011;23562;50.540;12.504;2022-12-07T00:46:29;22.05;;;12.02;;
37715;SDS011;23562;50.540;12.504;2022-12-07T00:48:55;21.92;;;12.60;;
37715;SDS011;23562;50.540;12.504;2022-12-07T00:51:21;21.23;;;12.30;;
37715;SDS011;23562;50.540;12.504;2022-12-07T00:53:48;21.65;;;12.18;;
37715;SDS011;23562;50.540;12.504;2022-12-07T00:56:15;21.67;;;12.95;;
37715;SDS011;23562;50.540;12.504;2022-12-07T00:58:49;16.80;;;10.68;;
37715;SDS011;23562;50.540;12.504;2022-12-07T01:01:15;20.95;;;11.07;;
37715;SDS011;23562;50.540;12.504;2022-12-07T01:03:41;21.90;;;11.45;;
37715;SDS011;23562;50.540;12.504;2022-12-07T01:06:06;19.88;;;11.10;;
37715;SDS011;23562;50.540;12.504;2022-12-07T01:08:32;21.00;;;11.90;;
37715;SDS011;23562;50.540;12.504;2022-12-07T01:11:02;20.98;;;12.35;;
37715;SDS011;23562;50.540;12.504;2022-12-07T01:13:30;20.13;;;11.70;;
37715;SDS011;23562;50.540;12.504;2022-12-07T01:15:57;20.60;;;11.98;;
37715;SDS011;23562;50.540;12.504;2022-12-07T01:18:27;19.83;;;11.00;;
37715;SDS011;23562;50.540;12.504;2022-12-07T01:20:58;17.23;;;10.52;;
37715;SDS011;23562;50.540;12.504;2022-12-07T01:23:31;17.42;;;9.57;;
37715;SDS011;23562;50.540;12.504;2022-12-07T01:25:59;14.82;;;8.73;;
37715;SDS011;23562;50.540;12.504;2022-12-07T01:28:26;17.00;;;9.35;;
37715;SDS011;23562;50.540;12.504;2022-12-07T01:30:58;16.15;;;8.80;;
37715;SDS011;23562;50.540;12.504;2022-12-07T01:33:29;14.73;;;8.30;;
37715;SDS011;23562;50.540;12.504;2022-12-07T01:36:03;15.98;;;8.57;;
37715;SDS011;23562;50.540;12.504;2022-12-07T01:38:30;14.40;;;8.18;;
37715;SDS011;23562;50.540;12.504;2022-12-07T01:40:56;17.98;;;8.90;;
37715;SDS011;23562;50.540;12.504;2022-12-07T01:43:23;16.42;;;8.38;;
37715;SDS011;23562;50.540;12.504;2022-12-07T01:45:50;13.63;;;7.85;;
37715;SDS011;23562;50.540;12.504;2022-12-07T01:48:16;17.95;;;8.02;;
37715;SDS011;23562;50.540;12.504;2022-12-07T01:50:45;15.40;;;8.18;;
37715;SDS011;23562;50.540;12.504;2022-12-07T01:53:13;11.85;;;7.35;;
37715;SDS011;23562;50.540;12.504;2022-12-07T01:55:40;12.10;;;7.57;;
37715;SDS011;23562;50.540;12.504;2022-12-07T01:58:09;14.70;;;6.67;;
37715;SDS011;23562;50.540;12.504;2022-12-07T02:00:36;10.45;;;6.60;;
37715;SDS011;23562;50.540;12.504;2022-12-07T02:05:44;14.32;;;6.72;;
37715;SDS011;23562;50.540;12.504;2022-12-07T02:08:12;12.80;;;6.82;;
37715;SDS011;23562;50.540;12.504;2022-12-07T02:10:38;10.05;;;6.32;;
37715;SDS011;23562;50.540;12.504;2022-12-07T02:13:11;11.43;;;6.60;;
37715;SDS011;23562;50.540;12.504;2022-12-07T02:24:03;9.52;;;5.70;;
37715;SDS011;23562;50.540;12.504;2022-12-07T02:31:56;8.98;;;5.72;;
37715;SDS011;23562;50.540;12.504;2022-12-07T02:37:15;9.98;;;5.80;;
37715;SDS011;23562;50.540;12.504;2022-12-07T02:39:51;10.30;;;5.78;;
37715;SDS011;23562;50.540;12.504;2022-12-07T02:42:44;10.80;;;5.47;;
37715;SDS011;23562;50.540;12.504;2022-12-07T02:45:15;9.02;;;5.47;;
37715;SDS011;23562;50.540;12.504;2022-12-07T02:47:45;8.50;;;5.32;;
37715;SDS011;23562;50.540;12.504;2022-12-07T02:50:17;11.55;;;5.82;;
37715;SDS011;23562;50.540;12.504;2022-12-07T02:52:44;11.13;;;6.00;;
37715;SDS011;23562;50.540;12.504;2022-12-07T02:55:09;9.80;;;5.28;;
37715;SDS011;23562;50.540;12.504;2022-12-07T03:00:22;8.35;;;5.57;;
37715;SDS011;23562;50.540;12.504;2022-12-07T03:03:01;8.38;;;5.30;;
37715;SDS011;23562;50.540;12.504;2022-12-07T03:08:33;7.78;;;4.75;;
37715;SDS011;23562;50.540;12.504;2022-12-07T03:11:08;10.82;;;5.78;;
37715;SDS011;23562;50.540;12.504;2022-12-07T03:13:41;8.03;;;4.37;;
37715;SDS011;23562;50.540;12.504;2022-12-07T03:16:14;9.55;;;5.15;;
37715;SDS011;23562;50.540;12.504;2022-12-07T03:18:46;7.93;;;5.05;;
37715;SDS011;23562;50.540;12.504;2022-12-07T03:21:14;8.40;;;5.93;;
37715;SDS011;23562;50.540;12.504;2022-12-07T03:23:44;10.60;;;5.82;;
37715;SDS011;23562;50.540;12.504;2022-12-07T03:26:14;9.18;;;5.53;;
37715;SDS011;23562;50.540;12.504;2022-12-07T03:28:44;10.75;;;5.47;;
37715;SDS011;23562;50.540;12.504;2022-12-07T03:31:21;9.65;;;5.45;;
37715;SDS011;23562;50.540;12.504;2022-12-07T03:33:56;10.20;;;6.18;;
37715;SDS011;23562;50.540;12.504;2022-12-07T03:36:39;9.75;;;6.38;;
37715;SDS011;23562;50.540;12.504;2022-12-07T03:41:49;11.15;;;5.50;;
37715;SDS011;23562;50.540;12.504;2022-12-07T03:44:16;8.80;;;5.63;;
37715;SDS011;23562;50.540;12.504;2022-12-07T03:49:27;8.95;;;5.60;;
37715;SDS011;23562;50.540;12.504;2022-12-07T03:54:56;9.93;;;5.40;;
37715;SDS011;23562;50.540;12.504;2022-12-07T03:57:25;9.68;;;5.63;;
37715;SDS011;23562;50.540;12.504;2022-12-07T03:59:53;8.30;;;5.38;;
37715;SDS011;23562;50.540;12.504;2022-12-07T04:02:21;8.50;;;5.65;;
37715;SDS011;23562;50.540;12.504;2022-12-07T04:04:47;11.40;;;5.63;;
37715;SDS011;23562;50.540;12.504;2022-12-07T04:07:12;9.45;;;5.88;;
37715;SDS011;23562;50.540;12.504;2022-12-07T04:09:37;12.23;;;6.03;;
37715;SDS011;23562;50.540;12.504;2022-12-07T04:12:03;9.02;;;5.88;;
37715;SDS011;23562;50.540;12.504;2022-12-07T04:14:28;8.10;;;5.43;;
37715;SDS011;23562;50.540;12.504;2022-12-07T04:16:55;10.07;;;5.57;;
37715;SDS011;23562;50.540;12.504;2022-12-07T04:19:23;10.48;;;5.85;;
37715;SDS011;23562;50.540;12.504;2022-12-07T04:21:52;9.75;;;5.85;;
37715;SDS011;23562;50.540;12.504;2022-12-07T04:24:18;17.10;;;6.45;;
37715;SDS011;23562;50.540;12.504;2022-12-07T04:26:44;14.25;;;7.07;;
37715;SDS011;23562;50.540;12.504;2022-12-07T04:29:11;9.38;;;6.53;;
37715;SDS011;23562;50.540;12.504;2022-12-07T04:31:38;11.38;;;7.00;;
37715;SDS011;23562;50.540;12.504;2022-12-07T04:34:03;10.98;;;6.82;;
37715;SDS011;23562;50.540;12.504;2022-12-07T04:36:30;10.98;;;6.57;;
37715;SDS011;23562;50.540;12.504;2022-12-07T04:38:55;8.93;;;6.43;;
37715;SDS011;23562;50.540;12.504;2022-12-07T04:41:21;10.82;;;6.78;;
37715;SDS011;23562;50.540;12.504;2022-12-07T04:43:52;10.88;;;6.65;;
37715;SDS011;23562;50.540;12.504;2022-12-07T04:46:19;16.20;;;7.82;;
37715;SDS011;23562;50.540;12.504;2022-12-07T04:48:44;11.38;;;7.22;;
37715;SDS011;23562;50.540;12.504;2022-12-07T04:51:09;11.55;;;7.00;;
37715;SDS011;23562;50.540;12.504;2022-12-07T04:53:35;12.40;;;7.75;;
37715;SDS011;23562;50.540;12.504;2022-12-07T04:56:00;15.65;;;8.02;;
37715;SDS011;23562;50.540;12.504;2022-12-07T04:58:26;26.80;;;11.48;;
37715;SDS011;23562;50.540;12.504;2022-12-07T05:00:53;21.55;;;11.13;;
37715;SDS011;23562;50.540;12.504;2022-12-07T05:03:20;30.45;;;15.32;;
37715;SDS011;23562;50.540;12.504;2022-12-07T05:05:45;17.63;;;10.63;;
37715;SDS011;23562;50.540;12.504;2022-12-07T05:08:10;17.42;;;8.80;;
37715;SDS011;23562;50.540;12.504;2022-12-07T05:10:35;13.35;;;8.55;;
37715;SDS011;23562;50.540;12.504;2022-12-07T05:13:01;19.02;;;9.38;;
37715;SDS011;23562;50.540;12.504;2022-12-07T05:15:26;21.00;;;10.80;;
37715;SDS011;23562;50.540;12.504;2022-12-07T05:17:51;16.27;;;9.55;;
37715;SDS011;23562;50.540;12.504;2022-12-07T05:20:17;25.40;;;12.30;;
37715;SDS011;23562;50.540;12.504;2022-12-07T05:22:42;19.38;;;11.10;;
37715;SDS011;23562;50.540;12.504;2022-12-07T05:25:08;15.63;;;9.73;;
37715;SDS011;23562;50.540;12.504;2022-12-07T05:27:33;16.05;;;9.73;;
37715;SDS011;23562;50.540;12.504;2022-12-07T05:29:59;17.73;;;9.77;;
37715;SDS011;23562;50.540;12.504;2022-12-07T05:32:24;14.82;;;9.88;;
37715;SDS011;23562;50.540;12.504;2022-12-07T05:34:49;18.58;;;10.70;;
37715;SDS011;23562;50.540;12.504;2022-12-07T05:37:14;18.17;;;9.85;;
37715;SDS011;23562;50.540;12.504;2022-12-07T05:39:40;18.08;;;10.20;;
37715;SDS011;23562;50.540;12.504;2022-12-07T05:42:08;18.92;;;10.25;;
37715;SDS011;23562;50.540;12.504;2022-12-07T05:44:40;17.20;;;10.55;;
37715;SDS011;23562;50.540;12.504;2022-12-07T05:47:07;12.23;;;7.83;;
37715;SDS011;23562;50.540;12.504;2022-12-07T05:49:33;19.00;;;10.73;;
37715;SDS011;23562;50.540;12.504;2022-12-07T05:51:58;18.17;;;10.68;;
37715;SDS011;23562;50.540;12.504;2022-12-07T05:54:23;19.67;;;11.38;;
37715;SDS011;23562;50.540;12.504;2022-12-07T05:56:49;19.70;;;11.80;;
37715;SDS011;23562;50.540;12.504;2022-12-07T05:59:14;20.63;;;11.68;;
37715;SDS011;23562;50.540;12.504;2022-12-07T06:02:07;20.20;;;12.20;;
37715;SDS011;23562;50.540;12.504;2022-12-07T06:04:38;19.88;;;11.65;;
37715;SDS011;23562;50.540;12.504;2022-12-07T06:09:30;18.02;;;10.85;;
37715;SDS011;23562;50.540;12.504;2022-12-07T06:11:58;20.65;;;12.07;;
37715;SDS011;23562;50.540;12.504;2022-12-07T06:14:43;22.90;;;12.73;;
37715;SDS011;23562;50.540;12.504;2022-12-07T06:17:09;21.63;;;13.05;;
37715;SDS011;23562;50.540;12.504;2022-12-07T06:19:35;24.50;;;13.88;;
37715;SDS011;23562;50.540;12.504;2022-12-07T06:22:01;22.27;;;13.35;;
37715;SDS011;23562;50.540;12.504;2022-12-07T06:24:27;19.88;;;12.73;;
37715;SDS011;23562;50.540;12.504;2022-12-07T06:26:53;23.58;;;14.15;;
37715;SDS011;23562;50.540;12.504;2022-12-07T06:29:18;22.63;;;13.45;;
37715;SDS011;23562;50.540;12.504;2022-12-07T06:31:44;22.50;;;12.70;;
37715;SDS011;23562;50.540;12.504;2022-12-07T06:34:10;24.30;;;13.38;;
37715;SDS011;23562;50.540;12.504;2022-12-07T06:36:38;20.85;;;12.23;;
37715;SDS011;23562;50.540;12.504;2022-12-07T06:39:03;21.55;;;13.07;;
37715;SDS011;23562;50.540;12.504;2022-12-07T06:41:30;21.20;;;12.77;;
37715;SDS011;23562;50.540;12.504;2022-12-07T06:43:55;20.77;;;11.52;;
37715;SDS011;23562;50.540;12.504;2022-12-07T06:46:20;20.90;;;12.20;;
37715;SDS011;23562;50.540;12.504;2022-12-07T06:48:45;22.25;;;13.15;;
37715;SDS011;23562;50.540;12.504;2022-12-07T06:51:11;27.67;;;13.35;;
37715;SDS011;23562;50.540;12.504;2022-12-07T06:53:36;22.13;;;12.27;;
37715;SDS011;23562;50.540;12.504;2022-12-07T06:56:03;24.30;;;13.55;;
37715;SDS011;23562;50.540;12.504;2022-12-07T06:58:29;25.45;;;15.23;;
37715;SDS011;23562;50.540;12.504;2022-12-07T07:00:54;21.55;;;13.00;;
37715;SDS011;23562;50.540;12.504;2022-12-07T07:03:19;20.35;;;12.43;;
37715;SDS011;23562;50.540;12.504;2022-12-07T07:05:45;24.95;;;12.68;;
37715;SDS011;23562;50.540;12.504;2022-12-07T07:08:10;21.48;;;12.60;;
37715;SDS011;23562;50.540;12.504;2022-12-07T07:10:36;18.95;;;11.70;;
37715;SDS011;23562;50.540;12.504;2022-12-07T07:13:02;21.25;;;12.02;;
37715;SDS011;23562;50.540;12.504;2022-12-07T07:15:28;23.83;;;13.57;;
37715;SDS011;23562;50.540;12.504;2022-12-07T07:17:53;23.40;;;13.15;;
37715;SDS011;23562;50.540;12.504;2022-12-07T07:20:19;22.83;;;12.95;;
37715;SDS011;23562;50.540;12.504;2022-12-07T07:22:44;21.45;;;12.82;;
37715;SDS011;23562;50.540;12.504;2022-12-07T07:25:09;29.48;;;12.88;;
37715;SDS011;23562;50.540;12.504;2022-12-07T07:27:35;26.15;;;13.50;;
37715;SDS011;23562;50.540;12.504;2022-12-07T07:30:00;22.23;;;12.80;;
37715;SDS011;23562;50.540;12.504;2022-12-07T07:32:25;23.60;;;13.23;;
37715;SDS011;23562;50.540;12.504;2022-12-07T07:34:50;27.35;;;15.43;;
37715;SDS011;23562;50.540;12.504;2022-12-07T07:37:16;22.60;;;13.98;;
37715;SDS011;23562;50.540;12.504;2022-12-07T07:39:41;20.05;;;12.23;;
37715;SDS011;23562;50.540;12.504;2022-12-07T07:42:06;22.58;;;12.68;;
37715;SDS011;23562;50.540;12.504;2022-12-07T07:44:32;20.92;;;12.35;;
37715;SDS011;23562;50.540;12.504;2022-12-07T07:46:58;23.95;;;13.07;;
37715;SDS011;23562;50.540;12.504;2022-12-07T07:49:23;25.73;;;13.07;;
37715;SDS011;23562;50.540;12.504;2022-12-07T07:51:49;19.88;;;12.23;;
37715;SDS011;23562;50.540;12.504;2022-12-07T07:54:14;18.52;;;11.55;;
37715;SDS011;23562;50.540;12.504;2022-12-07T07:56:39;24.52;;;11.75;;
37715;SDS011;23562;50.540;12.504;2022-12-07T07:59:04;20.73;;;12.77;;
37715;SDS011;23562;50.540;12.504;2022-12-07T08:01:30;22.55;;;12.90;;
37715;SDS011;23562;50.540;12.504;2022-12-07T08:03:55;20.02;;;11.77;;
37715;SDS011;23562;50.540;12.504;2022-12-07T08:06:20;19.67;;;11.73;;
37715;SDS011;23562;50.540;12.504;2022-12-07T08:08:45;19.58;;;10.88;;
37715;SDS011;23562;50.540;12.504;2022-12-07T08:11:11;17.85;;;10.70;;
37715;SDS011;23562;50.540;12.504;2022-12-07T08:13:36;17.08;;;11.00;;
37715;SDS011;23562;50.540;12.504;2022-12-07T08:16:05;17.92;;;11.35;;
37715;SDS011;23562;50.540;12.504;2022-12-07T08:18:37;18.95;;;11.23;;
37715;SDS011;23562;50.540;12.504;2022-12-07T08:21:06;18.40;;;10.90;;
37715;SDS011;23562;50.540;12.504;2022-12-07T08:23:34;18.08;;;11.13;;
37715;SDS011;23562;50.540;12.504;2022-12-07T08:26:06;20.70;;;11.43;;
37715;SDS011;23562;50.540;12.504;2022-12-07T08:28:34;17.60;;;11.00;;
37715;SDS011;23562;50.540;12.504;2022-12-07T08:31:10;18.33;;;10.70;;
37715;SDS011;23562;50.540;12.504;2022-12-07T08:33:37;20.10;;;11.68;;
37715;SDS011;23562;50.540;12.504;2022-12-07T08:36:05;19.67;;;11.70;;
37715;SDS011;23562;50.540;12.504;2022-12-07T08:38:33;17.05;;;10.07;;
37715;SDS011;23562;50.540;12.504;2022-12-07T08:40:59;16.10;;;10.20;;
37715;SDS011;23562;50.540;12.504;2022-12-07T08:43:25;18.77;;;11.15;;
37715;SDS011;23562;50.540;12.504;2022-12-07T08:48:40;24.52;;;11.30;;
37715;SDS011;23562;50.540;12.504;2022-12-07T08:51:08;19.58;;;10.57;;
37715;SDS011;23562;50.540;12.504;2022-12-07T08:53:34;21.55;;;11.75;;
37715;SDS011;23562;50.540;12.504;2022-12-07T08:56:01;23.70;;;12.15;;
37715;SDS011;23562;50.540;12.504;2022-12-07T08:58:26;22.50;;;12.93;;
37715;SDS011;23562;50.540;12.504;2022-12-07T09:00:52;18.95;;;11.63;;
37715;SDS011;23562;50.540;12.504;2022-12-07T09:03:17;18.63;;;11.35;;
37715;SDS011;23562;50.540;12.504;2022-12-07T09:05:42;19.95;;;11.68;;
37715;SDS011;23562;50.540;12.504;2022-12-07T09:08:08;18.73;;;10.75;;
37715;SDS011;23562;50.540;12.504;2022-12-07T09:13:07;18.23;;;10.75;;
37715;SDS011;23562;50.540;12.504;2022-12-07T09:15:33;18.88;;;10.63;;
37715;SDS011;23562;50.540;12.504;2022-12-07T09:17:58;21.75;;;10.20;;
37715;SDS011;23562;50.540;12.504;2022-12-07T09:20:24;20.77;;;10.70;;
37715;SDS011;23562;50.540;12.504;2022-12-07T09:22:49;20.17;;;11.02;;
37715;SDS011;23562;50.540;12.504;2022-12-07T09:25:14;17.73;;;11.00;;
37715;SDS011;23562;50.540;12.504;2022-12-07T09:27:40;17.85;;;10.77;;
37715;SDS011;23562;50.540;12.504;2022-12-07T09:30:06;21.88;;;11.82;;
37715;SDS011;23562;50.540;12.504;2022-12-07T09:32:32;19.83;;;10.98;;
37715;SDS011;23562;50.540;12.504;2022-12-07T09:34:57;19.45;;;12.07;;
37715;SDS011;23562;50.540;12.504;2022-12-07T09:37:23;24.55;;;11.07;;
37715;SDS011;23562;50.540;12.504;2022-12-07T09:39:48;22.08;;;11.82;;
37715;SDS011;23562;50.540;12.504;2022-12-07T09:42:59;18.90;;;11.07;;
37715;SDS011;23562;50.540;12.504;2022-12-07T09:45:11;17.35;;;10.77;;
37715;SDS011;23562;50.540;12.504;2022-12-07T09:47:40;21.35;;;13.07;;
37715;SDS011;23562;50.540;12.504;2022-12-07T09:50:07;20.92;;;11.90;;
37715;SDS011;23562;50.540;12.504;2022-12-07T09:52:38;27.42;;;12.77;;
37715;SDS011;23562;50.540;12.504;2022-12-07T09:55:07;27.45;;;13.30;;
37715;SDS011;23562;50.540;12.504;2022-12-07T09:57:36;20.33;;;11.60;;
37715;SDS011;23562;50.540;12.504;2022-12-07T10:00:03;20.60;;;11.15;;
37715;SDS011;23562;50.540;12.504;2022-12-07T10:02:39;18.55;;;10.50;;
37715;SDS011;23562;50.540;12.504;2022-12-07T10:05:12;16.92;;;9.65;;
37715;SDS011;23562;50.540;12.504;2022-12-07T10:07:40;18.55;;;10.40;;
37715;SDS011;23562;50.540;12.504;2022-12-07T10:10:09;18.38;;;9.77;;
37715;SDS011;23562;50.540;12.504;2022-12-07T10:12:56;17.05;;;9.68;;
37715;SDS011;23562;50.540;12.504;2022-12-07T10:15:49;15.35;;;9.65;;
37715;SDS011;23562;50.540;12.504;2022-12-07T10:18:35;16.70;;;8.90;;
37715;SDS011;23562;50.540;12.504;2022-12-07T10:23:36;15.80;;;9.55;;
37715;SDS011;23562;50.540;12.504;2022-12-07T10:26:18;16.48;;;8.90;;
37715;SDS011;23562;50.540;12.504;2022-12-07T10:29:17;16.48;;;8.95;;
37715;SDS011;23562;50.540;12.504;2022-12-07T10:31:45;15.68;;;9.20;;
37715;SDS011;23562;50.540;12.504;2022-12-07T10:34:24;16.77;;;9.10;;
37715;SDS011;23562;50.540;12.504;2022-12-07T10:37:07;16.95;;;8.80;;
37715;SDS011;23562;50.540;12.504;2022-12-07T10:39:45;14.95;;;9.57;;
37715;SDS011;23562;50.540;12.504;2022-12-07T10:44:48;17.10;;;10.43;;
37715;SDS011;23562;50.540;12.504;2022-12-07T10:49:47;13.02;;;8.60;;
37715;SDS011;23562;50.540;12.504;2022-12-07T10:55:07;14.43;;;8.55;;
37715;SDS011;23562;50.540;12.504;2022-12-07T11:00:37;15.00;;;8.05;;
37715;SDS011;23562;50.540;12.504;2022-12-07T11:08:41;13.15;;;7.82;;
37715;SDS011;23562;50.540;12.504;2022-12-07T11:11:38;21.95;;;8.30;;
37715;SDS011;23562;50.540;12.504;2022-12-07T11:14:19;12.82;;;7.47;;
37715;SDS011;23562;50.540;12.504;2022-12-07T11:19:52;10.43;;;6.63;;
37715;SDS011;23562;50.540;12.504;2022-12-07T11:25:48;12.50;;;7.22;;
37715;SDS011;23562;50.540;12.504;2022-12-07T11:31:10;14.60;;;8.35;;
37715;SDS011;23562;50.540;12.504;2022-12-07T11:36:53;31.70;;;18.70;;
37715;SDS011;23562;50.540;12.504;2022-12-07T11:42:00;20.80;;;14.75;;
37715;SDS011;23562;50.540;12.504;2022-12-07T11:44:55;16.25;;;8.77;;
37715;SDS011;23562;50.540;12.504;2022-12-07T11:48:00;13.23;;;8.35;;
37715;SDS011;23562;50.540;12.504;2022-12-07T11:55:42;10.52;;;7.10;;
37715;SDS011;23562;50.540;12.504;2022-12-07T11:58:33;11.95;;;7.82;;
37715;SDS011;23562;50.540;12.504;2022-12-07T12:03:38;14.02;;;9.05;;
37715;SDS011;23562;50.540;12.504;2022-12-07T12:06:08;14.73;;;8.93;;
37715;SDS011;23562;50.540;12.504;2022-12-07T12:08:35;15.68;;;8.20;;
37715;SDS011;23562;50.540;12.504;2022-12-07T12:19:25;33.97;;;16.90;;
37715;SDS011;23562;50.540;12.504;2022-12-07T12:21:57;21.20;;;10.95;;
37715;SDS011;23562;50.540;12.504;2022-12-07T12:24:31;10.65;;;6.80;;
37715;SDS011;23562;50.540;12.504;2022-12-07T12:27:02;10.57;;;5.07;;
37715;SDS011;23562;50.540;12.504;2022-12-07T12:29:32;9.95;;;5.75;;
37715;SDS011;23562;50.540;12.504;2022-12-07T12:32:05;9.07;;;4.65;;
37715;SDS011;23562;50.540;12.504;2022-12-07T12:34:58;12.77;;;6.00;;
37715;SDS011;23562;50.540;12.504;2022-12-07T12:42:45;9.07;;;3.88;;
37715;SDS011;23562;50.540;12.504;2022-12-07T12:47:55;6.63;;;4.07;;
37715;SDS011;23562;50.540;12.504;2022-12-07T12:50:34;8.27;;;4.70;;
37715;SDS011;23562;50.540;12.504;2022-12-07T12:53:21;7.65;;;4.72;;
37715;SDS011;23562;50.540;12.504;2022-12-07T12:56:06;14.35;;;6.68;;
37715;SDS011;23562;50.540;12.504;2022-12-07T12:58:41;9.73;;;6.38;;
37715;SDS011;23562;50.540;12.504;2022-12-07T13:04:00;14.97;;;6.63;;
37715;SDS011;23562;50.540;12.504;2022-12-07T13:08:54;10.73;;;5.95;;
37715;SDS011;23562;50.540;12.504;2022-12-07T13:11:29;11.98;;;6.60;;
37715;SDS011;23562;50.540;12.504;2022-12-07T13:17:01;15.48;;;8.00;;
37715;SDS011;23562;50.540;12.504;2022-12-07T13:19:52;14.77;;;6.75;;
37715;SDS011;23562;50.540;12.504;2022-12-07T13:22:31;10.57;;;5.70;;
37715;SDS011;23562;50.540;12.504;2022-12-07T13:25:09;11.43;;;5.65;;
37715;SDS011;23562;50.540;12.504;2022-12-07T13:27:39;14.73;;;5.85;;
37715;SDS011;23562;50.540;12.504;2022-12-07T13:30:13;12.13;;;6.38;;
37715;SDS011;23562;50.540;12.504;2022-12-07T13:32:40;28.00;;;12.50;;
37715;SDS011;23562;50.540;12.504;2022-12-07T13:37:52;14.00;;;7.53;;
37715;SDS011;23562;50.540;12.504;2022-12-07T13:40:18;20.65;;;10.75;;
37715;SDS011;23562;50.540;12.504;2022-12-07T13:42:46;11.68;;;5.88;;
37715;SDS011;23562;50.540;12.504;2022-12-07T13:48:35;9.88;;;5.53;;
37715;SDS011;23562;50.540;12.504;2022-12-07T13:51:16;9.93;;;6.20;;
37715;SDS011;23562;50.540;12.504;2022-12-07T13:53:47;10.73;;;5.20;;
37715;SDS011;23562;50.540;12.504;2022-12-07T13:56:15;8.13;;;5.50;;
37715;SDS011;23562;50.540;12.504;2022-12-07T13:58:41;7.03;;;4.45;;
37715;SDS011;23562;50.540;12.504;2022-12-07T14:01:06;7.57;;;4.20;;
37715;SDS011;23562;50.540;12.504;2022-12-07T14:03:33;8.95;;;4.47;;
37715;SDS011;23562;50.540;12.504;2022-12-07T14:06:12;7.20;;;3.67;;
37715;SDS011;23562;50.540;12.504;2022-12-07T14:08:40;6.93;;;3.83;;
37715;SDS011;23562;50.540;12.504;2022-12-07T14:11:06;8.43;;;3.33;;
37715;SDS011;23562;50.540;12.504;2022-12-07T14:13:44;8.43;;;4.30;;
37715;SDS011;23562;50.540;12.504;2022-12-07T14:19:04;5.00;;;3.40;;
37715;SDS011;23562;50.540;12.504;2022-12-07T14:21:54;8.02;;;4.32;;
37715;SDS011;23562;50.540;12.504;2022-12-07T14:24:33;6.85;;;4.00;;
37715;SDS011;23562;50.540;12.504;2022-12-07T14:27:15;9.93;;;4.43;;
37715;SDS011;23562;50.540;12.504;2022-12-07T14:29:42;7.13;;;4.40;;
37715;SDS011;23562;50.540;12.504;2022-12-07T14:32:19;12.15;;;4.60;;
37715;SDS011;23562;50.540;12.504;2022-12-07T14:35:00;14.30;;;5.32;;
37715;SDS011;23562;50.540;12.504;2022-12-07T14:37:45;13.57;;;6.72;;
37715;SDS011;23562;50.540;12.504;2022-12-07T14:40:16;13.23;;;7.07;;
37715;SDS011;23562;50.540;12.504;2022-12-07T14:42:47;18.50;;;8.05;;
37715;SDS011;23562;50.540;12.504;2022-12-07T14:45:17;13.25;;;7.65;;
37715;SDS011;23562;50.540;12.504;2022-12-07T14:47:45;13.70;;;8.05;;
37715;SDS011;23562;50.540;12.504;2022-12-07T14:50:15;12.70;;;8.00;;
37715;SDS011;23562;50.540;12.504;2022-12-07T14:52:43;15.40;;;9.00;;
37715;SDS011;23562;50.540;12.504;2022-12-07T14:55:19;14.93;;;7.85;;
37715;SDS011;23562;50.540;12.504;2022-12-07T14:57:48;12.27;;;7.00;;
37715;SDS011;23562;50.540;12.504;2022-12-07T15:00:15;15.20;;;7.47;;
37715;SDS011;23562;50.540;12.504;2022-12-07T15:02:42;12.88;;;7.43;;
37715;SDS011;23562;50.540;12.504;2022-12-07T15:05:09;10.38;;;6.47;;
37715;SDS011;23562;50.540;12.504;2022-12-07T15:07:34;11.82;;;6.80;;
37715;SDS011;23562;50.540;12.504;2022-12-07T15:10:00;10.80;;;6.38;;
37715;SDS011;23562;50.540;12.504;2022-12-07T15:12:25;31.52;;;15.77;;
37715;SDS011;23562;50.540;12.504;2022-12-07T15:14:51;29.73;;;14.35;;
37715;SDS011;23562;50.540;12.504;2022-12-07T15:17:16;18.35;;;10.68;;
37715;SDS011;23562;50.540;12.504;2022-12-07T15:19:41;16.85;;;12.30;;
37715;SDS011;23562;50.540;12.504;2022-12-07T15:22:07;12.32;;;8.05;;
37715;SDS011;23562;50.540;12.504;2022-12-07T15:24:35;12.27;;;7.05;;
37715;SDS011;23562;50.540;12.504;2022-12-07T15:27:02;15.27;;;8.45;;
37715;SDS011;23562;50.540;12.504;2022-12-07T15:29:27;10.90;;;6.78;;
37715;SDS011;23562;50.540;12.504;2022-12-07T15:31:53;9.88;;;5.78;;
37715;SDS011;23562;50.540;12.504;2022-12-07T15:34:18;12.55;;;7.10;;
37715;SDS011;23562;50.540;12.504;2022-12-07T15:36:44;21.25;;;11.98;;
37715;SDS011;23562;50.540;12.504;2022-12-07T15:39:09;21.63;;;13.60;;
37715;SDS011;23562;50.540;12.504;2022-12-07T15:41:35;20.08;;;12.38;;
37715;SDS011;23562;50.540;12.504;2022-12-07T15:44:01;11.00;;;8.45;;
37715;SDS011;23562;50.540;12.504;2022-12-07T15:46:45;9.10;;;5.70;;
37715;SDS011;23562;50.540;12.504;2022-12-07T15:49:14;10.38;;;5.30;;
37715;SDS011;23562;50.540;12.504;2022-12-07T15:51:44;11.52;;;6.00;;
37715;SDS011;23562;50.540;12.504;2022-12-07T15:54:13;11.30;;;5.63;;
37715;SDS011;23562;50.540;12.504;2022-12-07T15:56:50;7.60;;;5.60;;
37715;SDS011;23562;50.540;12.504;2022-12-07T15:59:16;9.45;;;4.95;;
37715;SDS011;23562;50.540;12.504;2022-12-07T16:01:42;10.20;;;5.43;;
37715;SDS011;23562;50.540;12.504;2022-12-07T16:04:07;8.50;;;4.95;;
37715;SDS011;23562;50.540;12.504;2022-12-07T16:06:32;7.95;;;6.00;;
37715;SDS011;23562;50.540;12.504;2022-12-07T16:08:58;11.20;;;5.30;;
37715;SDS011;23562;50.540;12.504;2022-12-07T16:11:23;8.68;;;5.05;;
37715;SDS011;23562;50.540;12.504;2022-12-07T16:13:48;10.32;;;5.65;;
37715;SDS011;23562;50.540;12.504;2022-12-07T16:16:14;11.02;;;6.07;;
37715;SDS011;23562;50.540;12.504;2022-12-07T16:18:41;12.48;;;6.05;;
37715;SDS011;23562;50.540;12.504;2022-12-07T16:21:08;8.68;;;5.50;;
37715;SDS011;23562;50.540;12.504;2022-12-07T16:23:33;12.32;;;7.18;;
37715;SDS011;23562;50.540;12.504;2022-12-07T16:26:06;13.65;;;7.30;;